Time;durP1;ratioP1;P1;durP2;ratioP2;P2;SDS_P1;SDS_P2;PMS_P1;PMS_P2;Temp;Humidity;BMP_temperature;BMP_pressure;BME280_temperature;BME280_humidity;BME280_pressure;Samples;Min_cycle;Max_cycle;Signal;HPM_P1;HPM_P2
2020/12/28 00:01:43;;;;;;;66.30;33.53;;;;;;;1.28;67.45;97627.71;119681;1152;104364;-71
2020/12/28 00:04:09;;;;;;;44.23;19.17;;;;;;;1.31;67.71;97626.70;119707;1153;104471;-70
2020/12/28 00:06:37;;;;;;;36.37;16.40;;;;;;;1.33;67.58;97627.47;119925;1153;104379;-70
2020/12/28 00:09:06;;;;;;;37.67;17.37;;;;;;;1.33;67.86;97628.29;119959;1152;104474;-70
2020/12/28 00:11:33;;;;;;;37.40;17.70;;;;;;;1.37;67.19;97620.25;120632;1151;104455;-71
2020/12/28 00:14:00;;;;;;;36.73;16.23;;;;;;;1.39;67.89;97628.88;119886;1152;104391;-70
2020/12/28 00:16:27;;;;;;;37.55;17.45;;;;;;;1.40;67.48;97634.04;119898;1151;104916;-71
2020/12/28 00:18:55;;;;;;;33.47;16.27;;;;;;;1.40;67.88;97625.32;120061;1151;104352;-70
2020/12/28 00:21:22;;;;;;;34.83;17.07;;;;;;;1.41;67.71;97614.77;120383;1153;104571;-70
2020/12/28 00:23:49;;;;;;;34.27;15.47;;;;;;;1.42;67.73;97621.70;119883;1154;104359;-70
2020/12/28 00:26:16;;;;;;;30.47;14.00;;;;;;;1.43;68.41;97609.42;119934;1151;104451;-71
2020/12/28 00:28:43;;;;;;;31.77;15.30;;;;;;;1.43;67.56;97614.66;119793;1151;104397;-71
2020/12/28 00:31:10;;;;;;;33.23;15.17;;;;;;;1.40;67.95;97599.12;119797;1151;104426;-70
2020/12/28 00:33:37;;;;;;;35.67;15.33;;;;;;;1.39;67.59;97600.91;119913;1152;104434;-70
2020/12/28 00:36:05;;;;;;;32.80;16.40;;;;;;;1.39;68.12;97600.91;119934;1152;104378;-70
2020/12/28 00:38:32;;;;;;;34.57;15.67;;;;;;;1.37;67.88;97609.78;119949;1153;104354;-71
2020/12/28 00:41:00;;;;;;;35.27;16.53;;;;;;;1.35;67.85;97602.02;120350;1152;104356;-70
2020/12/28 00:43:27;;;;;;;36.25;16.48;;;;;;;1.30;68.01;97598.83;119951;1153;104438;-70
2020/12/28 00:45:54;;;;;;;34.85;17.82;;;;;;;1.29;68.09;97594.52;121174;1153;104451;-70
2020/12/28 00:48:22;;;;;;;32.50;16.40;;;;;;;1.28;67.60;97593.66;120002;1153;104458;-71
2020/12/28 00:50:51;;;;;;;34.10;17.70;;;;;;;1.26;67.69;97586.83;119979;1153;104449;-70
2020/12/28 00:53:17;;;;;;;34.45;16.20;;;;;;;1.25;67.70;97591.22;120254;1153;104503;-70
2020/12/28 00:55:44;;;;;;;33.13;15.37;;;;;;;1.26;68.33;97590.28;119959;1151;104396;-70
2020/12/28 00:58:11;;;;;;;32.77;15.40;;;;;;;1.26;67.70;97594.69;119949;1151;104470;-68
2020/12/28 01:00:38;;;;;;;33.27;14.77;;;;;;;1.26;67.84;97590.28;119984;1153;104359;-71
2020/12/28 01:03:05;;;;;;;32.57;16.13;;;;;;;1.26;67.79;97584.22;120006;1153;104456;-71
2020/12/28 01:05:32;;;;;;;30.27;15.30;;;;;;;1.23;68.22;97564.27;119934;1153;104530;-70
2020/12/28 01:07:59;;;;;;;32.90;15.05;;;;;;;1.21;68.26;97553.06;120069;1152;104379;-72
2020/12/28 01:10:26;;;;;;;30.50;14.90;;;;;;;1.22;68.23;97557.38;120122;1153;104358;-70
2020/12/28 01:12:53;;;;;;;33.00;15.07;;;;;;;1.22;68.00;97554.75;120118;1152;104457;-70
2020/12/28 01:15:20;;;;;;;30.60;15.23;;;;;;;1.19;67.93;97550.52;119934;1153;106342;-71
2020/12/28 01:17:47;;;;;;;33.07;15.27;;;;;;;1.16;68.03;97536.77;119826;1154;104492;-70
2020/12/28 01:20:14;;;;;;;33.13;15.27;;;;;;;1.20;68.05;97535.66;119979;1153;104487;-71
2020/12/28 01:22:45;;;;;;;31.90;14.75;;;;;;;1.22;68.28;97525.08;119848;1151;104452;-71
2020/12/28 01:25:12;;;;;;;33.98;15.25;;;;;;;1.24;68.30;97523.22;120524;1153;104372;-71
2020/12/28 01:27:43;;;;;;;33.40;14.77;;;;;;;1.31;68.61;97529.78;120484;1151;104426;-70
2020/12/28 01:30:10;;;;;;;32.23;14.33;;;;;;;1.42;68.41;97527.37;119923;1151;104359;-71
2020/12/28 01:32:36;;;;;;;33.08;14.83;;;;;;;1.54;69.12;97527.53;119903;1154;104453;-70
2020/12/28 01:35:03;;;;;;;29.17;14.83;;;;;;;1.59;68.14;97513.23;119982;1153;104454;-70
2020/12/28 01:37:30;;;;;;;32.10;15.43;;;;;;;1.66;68.56;97525.94;119796;1151;104548;-68
2020/12/28 01:39:58;;;;;;;31.62;14.83;;;;;;;1.65;68.29;97519.88;119963;1152;104849;-71
2020/12/28 01:42:25;;;;;;;31.60;14.60;;;;;;;1.69;68.56;97515.27;119877;1153;104550;-71
2020/12/28 01:44:52;;;;;;;31.10;14.73;;;;;;;1.72;68.10;97512.46;120064;1151;104429;-69
2020/12/28 01:47:20;;;;;;;29.07;13.98;;;;;;;1.73;68.53;97495.80;120076;1151;104367;-70
2020/12/28 01:49:47;;;;;;;31.10;15.95;;;;;;;1.71;68.67;97495.91;119855;1152;104784;-71
2020/12/28 01:52:14;;;;;;;32.20;14.75;;;;;;;1.74;68.14;97494.86;119997;1150;104479;-70
2020/12/28 01:54:48;;;;;;;31.70;15.47;;;;;;;1.77;68.40;97484.19;120041;1151;104466;-70
2020/12/28 01:57:17;;;;;;;32.17;14.63;;;;;;;1.81;68.35;97482.23;119992;1151;104431;-70
2020/12/28 01:59:44;;;;;;;30.93;15.57;;;;;;;1.86;69.01;97486.24;121380;1152;102275;-70
2020/12/28 02:02:17;;;;;;;31.27;14.83;;;;;;;1.86;68.33;97474.89;120631;1152;104844;-70
2020/12/28 02:04:44;;;;;;;31.82;14.70;;;;;;;1.82;68.22;97463.77;119872;1152;104385;-71
2020/12/28 02:07:15;;;;;;;30.33;14.47;;;;;;;1.77;69.04;97460.59;119933;1153;104403;-70
2020/12/28 02:09:46;;;;;;;32.10;14.40;;;;;;;1.75;68.72;97459.84;119830;1151;104896;-71
2020/12/28 02:12:13;;;;;;;31.10;15.50;;;;;;;1.78;68.33;97457.89;121020;1153;104374;-71
2020/12/28 02:14:41;;;;;;;32.83;16.03;;;;;;;1.81;69.04;97456.02;119815;1153;104590;-71
2020/12/28 02:17:12;;;;;;;34.43;16.35;;;;;;;1.81;68.29;97458.64;120046;1153;104458;-71
2020/12/28 02:19:39;;;;;;;32.93;15.70;;;;;;;1.80;68.67;97451.71;119921;1153;104351;-72
2020/12/28 02:22:06;;;;;;;31.00;15.78;;;;;;;1.78;68.57;97451.79;119955;1151;104353;-71
2020/12/28 02:24:33;;;;;;;33.30;16.43;;;;;;;1.76;68.45;97449.28;119886;1153;104388;-70
2020/12/28 02:27:00;;;;;;;33.30;16.23;;;;;;;1.75;68.36;97450.22;119883;1151;104470;-70
2020/12/28 02:29:27;;;;;;;32.77;14.97;;;;;;;1.75;68.65;97450.22;119810;1153;104479;-71
2020/12/28 02:31:54;;;;;;;31.07;14.73;;;;;;;1.76;68.97;97448.42;120062;1151;104451;-71
2020/12/28 02:34:20;;;;;;;31.00;14.67;;;;;;;1.76;69.04;97438.80;119851;1153;104416;-71
2020/12/28 02:36:47;;;;;;;29.50;14.07;;;;;;;1.76;68.94;97424.83;119855;1152;104445;-71
2020/12/28 02:39:14;;;;;;;33.57;16.00;;;;;;;1.82;69.26;97431.48;119831;1151;104355;-71
2020/12/28 02:41:41;;;;;;;30.23;14.40;;;;;;;1.87;68.88;97426.77;119927;1153;104380;-69
2020/12/28 02:44:09;;;;;;;31.60;14.50;;;;;;;1.87;68.24;97418.89;119780;1153;104866;-69
2020/12/28 02:46:36;;;;;;;28.17;13.83;;;;;;;1.85;68.55;97426.88;120480;1153;104410;-71
2020/12/28 02:49:03;;;;;;;27.62;13.05;;;;;;;1.84;68.80;97422.56;120013;1153;104510;-69
2020/12/28 02:51:30;;;;;;;29.40;14.10;;;;;;;1.84;68.45;97430.44;119915;1153;104425;-70
2020/12/28 02:53:58;;;;;;;30.43;14.33;;;;;;;1.83;68.73;97427.92;120147;1151;104365;-69
2020/12/28 02:56:25;;;;;;;28.50;13.33;;;;;;;1.82;68.67;97426.23;120756;1153;104327;-70
2020/12/28 02:58:53;;;;;;;26.15;12.95;;;;;;;1.82;69.30;97413.95;119820;1153;104353;-69
2020/12/28 03:01:20;;;;;;;28.55;14.07;;;;;;;1.87;68.59;97411.89;119983;1152;104967;-69
2020/12/28 03:03:47;;;;;;;28.80;14.13;;;;;;;1.85;68.71;97415.53;119825;1152;104485;-70
2020/12/28 03:06:14;;;;;;;29.80;13.60;;;;;;;1.88;68.94;97404.84;119773;1152;104386;-68
2020/12/28 03:08:41;;;;;;;29.30;14.80;;;;;;;1.91;69.12;97400.27;119961;1151;104375;-71
2020/12/28 03:11:08;;;;;;;29.03;14.53;;;;;;;1.92;68.76;97380.97;119912;1153;104378;-70
2020/12/28 03:13:35;;;;;;;28.33;14.20;;;;;;;1.98;68.85;97379.72;119854;1153;104532;-69
2020/12/28 03:16:02;;;;;;;30.03;13.87;;;;;;;2.00;68.79;97377.84;120459;1151;104379;-69
2020/12/28 03:18:28;;;;;;;30.97;15.03;;;;;;;2.02;69.40;97380.38;119938;1153;104429;-69
2020/12/28 03:20:56;;;;;;;31.45;14.28;;;;;;;2.05;68.70;97382.78;119904;1153;104666;-69
2020/12/28 03:23:27;;;;;;;31.00;15.03;;;;;;;2.05;69.30;97385.40;119908;1151;104460;-70
2020/12/28 03:25:54;;;;;;;29.77;13.70;;;;;;;2.02;68.56;97383.83;120074;1153;104396;-71
2020/12/28 03:28:21;;;;;;;32.43;15.03;;;;;;;2.02;69.06;97389.08;119960;1153;104463;-70
2020/12/28 03:30:49;;;;;;;33.13;15.23;;;;;;;1.99;68.79;97385.83;119867;1153;104452;-70
2020/12/28 03:33:17;;;;;;;29.70;14.80;;;;;;;1.95;68.44;97385.16;120890;1153;103056;-70
2020/12/28 03:35:44;;;;;;;33.13;16.07;;;;;;;1.87;68.54;97379.56;119832;1152;104432;-70
2020/12/28 03:38:11;;;;;;;40.00;17.73;;;;;;;1.82;69.00;97385.11;119883;1151;104388;-70
2020/12/28 03:40:38;;;;;;;37.87;17.90;;;;;;;1.84;69.39;97372.75;119844;1151;104393;-70
2020/12/28 03:43:05;;;;;;;38.73;18.60;;;;;;;1.84;69.36;97367.51;119905;1153;104429;-69
2020/12/28 03:45:32;;;;;;;36.73;16.82;;;;;;;1.85;68.90;97378.82;120504;1151;104359;-69
2020/12/28 03:48:03;;;;;;;37.70;17.40;;;;;;;1.84;69.54;97371.89;119903;1151;104426;-67
2020/12/28 03:50:34;;;;;;;36.73;16.63;;;;;;;1.83;69.31;97362.38;120059;1152;104429;-70
2020/12/28 03:53:01;;;;;;;35.33;17.80;;;;;;;1.81;69.12;97359.02;120003;1151;104367;-69
2020/12/28 03:55:28;;;;;;;35.03;16.70;;;;;;;1.78;68.92;97366.13;119827;1151;104498;-70
2020/12/28 03:58:00;;;;;;;36.63;18.00;;;;;;;1.76;68.40;97357.53;119913;1151;104463;-70
2020/12/28 04:00:28;;;;;;;33.40;16.57;;;;;;;1.73;68.74;97357.72;119889;1151;104423;-69
2020/12/28 04:02:54;;;;;;;33.53;16.10;;;;;;;1.74;69.16;97353.30;119930;1151;104410;-71
2020/12/28 04:05:21;;;;;;;33.07;16.00;;;;;;;1.74;68.98;97355.92;119865;1151;104426;-71
2020/12/28 04:07:48;;;;;;;34.30;16.50;;;;;;;1.72;69.19;97345.55;119889;1151;105113;-70
2020/12/28 04:10:16;;;;;;;31.37;15.80;;;;;;;1.70;69.25;97343.95;119969;1151;104419;-70
2020/12/28 04:12:43;;;;;;;32.47;15.67;;;;;;;1.70;68.61;97357.05;120459;1151;104379;-69
2020/12/28 04:15:10;;;;;;;33.17;16.40;;;;;;;1.70;69.51;97346.58;119861;1151;104426;-71
2020/12/28 04:17:37;;;;;;;33.50;15.87;;;;;;;1.70;69.21;97344.80;119981;1151;104388;-70
2020/12/28 04:20:05;;;;;;;29.43;14.53;;;;;;;1.72;69.10;97339.45;119770;1152;104538;-68
2020/12/28 04:22:32;;;;;;;30.70;15.37;;;;;;;1.72;69.14;97342.93;120595;1154;104369;-68
2020/12/28 04:24:59;;;;;;;32.33;15.55;;;;;;;1.72;69.54;97342.08;119845;1151;104445;-69
2020/12/28 04:27:26;;;;;;;36.00;16.87;;;;;;;1.66;68.88;97338.08;119931;1152;104349;-70
2020/12/28 04:29:54;;;;;;;33.57;16.30;;;;;;;1.55;68.52;97336.16;120230;1153;104576;-70
2020/12/28 04:32:21;;;;;;;31.27;16.20;;;;;;;1.46;69.13;97329.70;119914;1153;104386;-69
2020/12/28 04:34:48;;;;;;;31.03;14.53;;;;;;;1.39;68.83;97328.42;119853;1151;104458;-70
2020/12/28 04:37:16;;;;;;;39.27;18.17;;;;;;;1.30;69.25;97329.83;120783;1154;101852;-70
2020/12/28 04:39:43;;;;;;;37.33;18.37;;;;;;;1.22;69.30;97332.11;121526;1153;102581;-70
2020/12/28 04:42:10;;;;;;;38.20;19.10;;;;;;;1.16;69.03;97330.70;120420;1152;104401;-70
2020/12/28 04:44:37;;;;;;;37.53;18.97;;;;;;;1.15;69.42;97322.95;120121;1153;104465;-71
2020/12/28 04:47:09;;;;;;;35.25;17.67;;;;;;;1.16;69.29;97332.48;120182;1151;104877;-70
2020/12/28 04:49:42;;;;;;;34.13;17.07;;;;;;;1.16;69.34;97335.11;120076;1151;104416;-69
2020/12/28 04:52:14;;;;;;;33.65;17.60;;;;;;;1.18;69.49;97335.86;120123;1151;104487;-69
2020/12/28 04:54:47;;;;;;;33.50;16.70;;;;;;;1.23;69.39;97328.52;120023;1151;104342;-70
2020/12/28 04:57:14;;;;;;;30.53;14.83;;;;;;;1.31;69.47;97328.06;120010;1151;104393;-69
2020/12/28 04:59:43;;;;;;;33.00;16.97;;;;;;;1.38;69.39;97329.37;121110;1151;102042;-69
2020/12/28 05:02:15;;;;;;;30.30;15.13;;;;;;;1.44;69.37;97336.81;119947;1154;104457;-69
2020/12/28 05:04:42;;;;;;;31.97;15.27;;;;;;;1.47;69.43;97333.17;119817;1151;104853;-71
2020/12/28 05:07:08;;;;;;;30.50;15.70;;;;;;;1.50;69.53;97338.22;119874;1154;104459;-70
2020/12/28 05:09:35;;;;;;;33.00;15.80;;;;;;;1.53;69.69;97339.80;119986;1151;105017;-73
2020/12/28 05:12:09;;;;;;;30.20;15.20;;;;;;;1.54;69.84;97346.72;120621;1151;104448;-70
2020/12/28 05:14:36;;;;;;;32.97;15.00;;;;;;;1.46;69.43;97350.66;120075;1152;104471;-70
2020/12/28 05:17:08;;;;;;;32.08;16.32;;;;;;;1.38;69.16;97325.89;120123;1153;104730;-70
2020/12/28 05:19:37;;;;;;;32.60;16.50;;;;;;;1.39;69.33;97322.33;119898;1151;104452;-70
2020/12/28 05:22:05;;;;;;;30.00;15.57;;;;;;;1.47;69.46;97317.45;120052;1153;104355;-70
2020/12/28 05:24:32;;;;;;;30.87;14.63;;;;;;;1.55;70.07;97316.95;119867;1152;104378;-69
2020/12/28 05:27:00;;;;;;;30.67;15.90;;;;;;;1.58;70.40;97319.38;120051;1153;104330;-70
2020/12/28 05:29:33;;;;;;;30.20;16.53;;;;;;;1.62;69.91;97311.23;120008;1153;104499;-70
2020/12/28 05:32:00;;;;;;;28.67;15.43;;;;;;;1.67;70.49;97316.17;119943;1152;104387;-70
2020/12/28 05:34:28;;;;;;;30.10;14.55;;;;;;;1.72;70.26;97308.85;120024;1151;104352;-70
2020/12/28 05:36:58;;;;;;;29.00;15.00;;;;;;;1.78;70.27;97311.08;120598;1151;104398;-70
2020/12/28 05:39:31;;;;;;;29.83;15.30;;;;;;;1.84;69.88;97304.58;120221;1151;104454;-68
2020/12/28 05:42:12;;;;;;;28.62;14.98;;;;;;;1.92;69.75;97299.69;120100;1151;104378;-71
2020/12/28 05:44:44;;;;;;;29.90;16.00;;;;;;;1.98;69.95;97300.23;119945;1153;104368;-71
2020/12/28 05:47:16;;;;;;;33.37;15.23;;;;;;;2.01;69.71;97292.98;120244;1152;104354;-70
2020/12/28 05:49:49;;;;;;;29.70;15.43;;;;;;;2.06;69.76;97290.89;119864;1152;104522;-70
2020/12/28 05:52:17;;;;;;;30.43;15.33;;;;;;;2.11;70.39;97282.70;119829;1153;104362;-69
2020/12/28 05:54:44;;;;;;;30.00;15.17;;;;;;;2.16;70.34;97292.91;120445;1151;104458;-70
2020/12/28 05:57:11;;;;;;;32.17;15.70;;;;;;;2.19;70.27;97293.53;119957;1151;104461;-69
2020/12/28 05:59:42;;;;;;;30.80;15.97;;;;;;;2.23;69.99;97294.19;120533;1151;102407;-70
2020/12/28 06:02:12;;;;;;;30.60;16.73;;;;;;;2.24;70.21;97293.24;119855;1151;104429;-69
2020/12/28 06:04:44;;;;;;;29.85;16.20;;;;;;;2.24;70.53;97298.49;119957;1154;104384;-68
2020/12/28 06:07:12;;;;;;;31.77;15.93;;;;;;;2.29;70.58;97291.12;120512;1153;104568;-69
2020/12/28 06:09:41;;;;;;;33.80;16.63;;;;;;;2.32;69.92;97287.47;119957;1153;104386;-70
2020/12/28 06:12:17;;;;;;;32.28;16.45;;;;;;;2.35;70.70;97287.27;120099;1148;104355;-70
2020/12/28 06:14:44;;;;;;;32.20;16.07;;;;;;;2.38;70.46;97279.19;120110;1152;104499;-72
2020/12/28 06:17:16;;;;;;;31.80;16.45;;;;;;;2.40;69.89;97279.92;120140;1153;104375;-71
2020/12/28 06:19:43;;;;;;;30.97;16.03;;;;;;;2.44;70.41;97273.52;120134;1151;104502;-70
2020/12/28 06:22:23;;;;;;;33.40;15.95;;;;;;;2.47;69.88;97272.45;120043;1151;104355;-73
2020/12/28 06:25:02;;;;;;;33.43;17.00;;;;;;;2.50;70.83;97280.95;119956;1153;104418;-70
2020/12/28 06:27:32;;;;;;;29.90;14.85;;;;;;;2.51;70.60;97266.06;119897;1152;104468;-70
2020/12/28 06:30:25;;;;;;;33.23;16.87;;;;;;;2.55;70.15;97275.41;120404;1152;104359;-70
2020/12/28 06:33:04;;;;;;;33.43;17.50;;;;;;;2.59;70.81;97271.63;119854;1153;104387;-71
2020/12/28 06:35:35;;;;;;;38.20;19.70;;;;;;;2.56;69.99;97266.59;120876;1152;104354;-70
2020/12/28 06:38:03;;;;;;;45.70;21.67;;;;;;;2.55;70.33;97259.66;120109;1153;104842;-70
2020/12/28 06:40:36;;;;;;;41.20;21.73;;;;;;;2.59;70.59;97265.52;119851;1153;104364;-70
2020/12/28 06:43:17;;;;;;;52.40;26.40;;;;;;;2.59;70.77;97266.38;120249;1153;104966;-69
2020/12/28 06:45:47;;;;;;;56.60;28.87;;;;;;;2.64;70.48;97271.30;119873;1152;103579;-70
2020/12/28 06:48:18;;;;;;;43.20;21.53;;;;;;;2.65;70.28;97265.10;119903;1151;104529;-70
2020/12/28 06:50:57;;;;;;;38.13;19.37;;;;;;;2.64;70.46;97264.27;120290;1152;104391;-70
2020/12/28 06:53:27;;;;;;;31.63;15.47;;;;;;;2.64;70.77;97266.90;120867;1151;104367;-70
2020/12/28 06:56:06;;;;;;;29.33;15.70;;;;;;;2.67;70.16;97252.70;119819;1153;104458;-71
2020/12/28 06:58:35;;;;;;;32.70;15.70;;;;;;;2.73;70.05;97254.91;120940;1151;104509;-70
2020/12/28 07:01:05;;;;;;;33.63;15.87;;;;;;;2.75;70.41;97250.39;120377;1151;104852;-71
2020/12/28 07:03:33;;;;;;;30.15;15.15;;;;;;;2.67;70.21;97248.28;119900;1151;104453;-70
2020/12/28 07:06:01;;;;;;;35.00;18.40;;;;;;;2.64;70.27;97251.16;119832;1151;104383;-71
2020/12/28 07:08:29;;;;;;;31.37;16.03;;;;;;;2.55;70.00;97250.92;119872;1151;104355;-72
2020/12/28 07:11:03;;;;;;;32.40;16.10;;;;;;;2.48;70.28;97253.14;119908;1151;104427;-70
2020/12/28 07:13:35;;;;;;;32.63;16.10;;;;;;;2.43;70.34;97250.84;120366;1151;104396;-73
2020/12/28 07:16:10;;;;;;;32.07;16.70;;;;;;;2.37;70.62;97254.72;120078;1152;104375;-70
2020/12/28 07:18:37;;;;;;;36.80;18.50;;;;;;;2.29;70.07;97248.32;120015;1153;104525;-70
2020/12/28 07:21:06;;;;;;;38.17;19.80;;;;;;;2.26;70.52;97236.23;120054;1151;104473;-70
2020/12/28 07:23:35;;;;;;;45.60;22.67;;;;;;;2.30;70.07;97231.63;120021;1151;104634;-71
2020/12/28 07:26:11;;;;;;;47.73;23.40;;;;;;;2.33;71.03;97224.38;121856;1152;102805;-70
2020/12/28 07:28:40;;;;;;;48.63;23.27;;;;;;;2.34;70.30;97228.69;121966;1151;103465;-71
2020/12/28 07:31:08;;;;;;;44.90;22.13;;;;;;;2.36;70.39;97220.72;120076;1151;104358;-72
2020/12/28 07:33:47;;;;;;;46.37;23.93;;;;;;;2.41;70.44;97217.77;120068;1152;104352;-69
2020/12/28 07:36:15;;;;;;;46.40;24.00;;;;;;;2.41;70.60;97228.27;120000;1153;104506;-70
2020/12/28 07:38:44;;;;;;;50.23;24.00;;;;;;;2.38;70.96;97222.28;120007;1153;104439;-70
2020/12/28 07:41:17;;;;;;;45.23;23.73;;;;;;;2.36;71.08;97218.09;120042;1153;104448;-69
2020/12/28 07:43:54;;;;;;;46.00;23.47;;;;;;;2.43;71.56;97223.75;120042;1153;104424;-70
2020/12/28 07:46:33;;;;;;;37.03;17.73;;;;;;;2.52;71.02;97205.57;120035;1152;104366;-75
2020/12/28 07:49:05;;;;;;;33.97;15.83;;;;;;;2.60;70.97;97177.95;120001;1153;104532;-73
2020/12/28 07:51:36;;;;;;;30.57;14.47;;;;;;;2.64;71.49;97185.52;119997;1151;104484;-71
2020/12/28 07:54:20;;;;;;;30.80;14.35;;;;;;;2.71;70.78;97175.41;120006;1151;104390;-70
2020/12/28 07:56:52;;;;;;;25.73;12.50;;;;;;;2.76;71.37;97169.83;120015;1153;104466;-73
2020/12/28 07:59:50;;;;;;;30.13;14.07;;;;;;;2.80;71.00;97163.41;120006;1154;104400;-74
2020/12/28 08:02:30;;;;;;;28.53;13.97;;;;;;;2.85;71.54;97158.67;120067;1151;104361;-71
2020/12/28 08:04:58;;;;;;;29.23;13.60;;;;;;;2.90;71.26;97150.45;120083;1152;104354;-69
2020/12/28 08:07:25;;;;;;;29.53;13.97;;;;;;;2.95;71.60;97150.95;120078;1151;104357;-70
2020/12/28 08:09:54;;;;;;;25.83;12.97;;;;;;;3.00;70.89;97140.14;120033;1154;104825;-72
2020/12/28 08:12:22;;;;;;;30.43;15.37;;;;;;;3.04;71.10;97142.41;120043;1153;104460;-70
2020/12/28 08:14:54;;;;;;;27.80;13.60;;;;;;;3.09;71.36;97137.67;120018;1153;104869;-73
2020/12/28 08:17:26;;;;;;;26.70;13.23;;;;;;;3.16;71.69;97127.53;120042;1151;104429;-72
2020/12/28 08:20:13;;;;;;;27.90;13.83;;;;;;;3.25;71.80;97113.73;120056;1153;104360;-72
2020/12/28 08:22:40;;;;;;;28.20;12.25;;;;;;;3.34;71.55;97111.38;120025;1151;104474;-72
2020/12/28 08:25:12;;;;;;;26.83;12.43;;;;;;;3.44;71.35;97117.63;120039;1154;104529;-71
2020/12/28 08:27:43;;;;;;;28.45;12.05;;;;;;;3.50;71.32;97113.69;120040;1151;104430;-69
2020/12/28 08:30:10;;;;;;;28.57;12.43;;;;;;;3.59;71.87;97115.62;120004;1153;104493;-70
2020/12/28 08:32:40;;;;;;;26.03;11.83;;;;;;;3.70;71.39;97115.62;120042;1151;104827;-70
2020/12/28 08:35:07;;;;;;;24.00;11.57;;;;;;;3.82;71.76;97116.51;120073;1151;104853;-70
2020/12/28 08:37:36;;;;;;;26.17;11.20;;;;;;;3.94;71.64;97109.46;120067;1151;104390;-67
2020/12/28 08:40:15;;;;;;;27.20;11.30;;;;;;;4.06;71.76;97109.48;120049;1151;104527;-70
2020/12/28 08:42:42;;;;;;;26.53;13.13;;;;;;;4.20;72.10;97103.13;119973;1151;104374;-74
2020/12/28 08:45:20;;;;;;;21.87;10.00;;;;;;;4.36;71.81;97092.23;119986;1151;104468;-72
2020/12/28 08:47:52;;;;;;;22.30;9.93;;;;;;;4.55;71.91;97086.34;119976;1151;104882;-73
2020/12/28 08:50:20;;;;;;;22.40;10.87;;;;;;;4.70;71.77;97074.55;120043;1153;104381;-70
2020/12/28 08:52:50;;;;;;;25.13;11.50;;;;;;;4.87;71.71;97070.58;120058;1151;104532;-73
2020/12/28 08:55:19;;;;;;;24.03;10.60;;;;;;;5.02;71.59;97052.67;119969;1151;104460;-73
2020/12/28 08:57:59;;;;;;;25.10;11.77;;;;;;;5.15;72.08;97047.22;120100;1153;104449;-73
2020/12/28 09:00:27;;;;;;;23.77;10.80;;;;;;;5.25;71.92;97043.83;120030;1151;104458;-72
2020/12/28 09:02:58;;;;;;;21.80;10.17;;;;;;;5.30;72.12;97044.28;120037;1151;104355;-73
2020/12/28 09:05:32;;;;;;;21.63;8.93;;;;;;;5.29;71.53;97038.16;120027;1151;104350;-72
2020/12/28 09:08:00;;;;;;;25.17;10.73;;;;;;;5.28;72.15;97033.84;120013;1151;104458;-73
2020/12/28 09:10:28;;;;;;;20.70;8.80;;;;;;;5.31;71.93;97046.77;120043;1151;104420;-74
2020/12/28 09:12:55;;;;;;;23.67;10.00;;;;;;;5.31;71.96;97044.14;119747;1153;104433;-73
2020/12/28 09:15:23;;;;;;;25.70;10.30;;;;;;;5.35;71.87;97032.38;119933;1153;104393;-74
2020/12/28 09:17:50;;;;;;;20.47;8.47;;;;;;;5.39;72.29;97037.39;119907;1151;104595;-74
2020/12/28 09:20:18;;;;;;;23.80;9.90;;;;;;;5.42;71.89;97032.69;119876;1151;104428;-72
2020/12/28 09:22:45;;;;;;;20.47;8.93;;;;;;;5.45;72.22;97042.16;119910;1151;104456;-73
2020/12/28 09:25:12;;;;;;;21.77;9.40;;;;;;;5.47;72.05;97022.59;119528;1151;104448;-73
2020/12/28 09:27:39;;;;;;;21.93;9.70;;;;;;;5.50;72.03;97024.97;119904;1153;104519;-70
2020/12/28 09:30:07;;;;;;;24.70;10.63;;;;;;;5.58;72.08;97019.03;119809;1152;104930;-71
2020/12/28 09:32:39;;;;;;;21.83;10.20;;;;;;;5.65;72.33;97022.82;119797;1153;104386;-73
2020/12/28 09:35:07;;;;;;;23.60;10.60;;;;;;;5.81;72.11;97016.23;119990;1153;104394;-73
2020/12/28 09:37:34;;;;;;;24.30;10.40;;;;;;;5.98;72.08;97020.05;119924;1151;104361;-72
2020/12/28 09:40:05;;;;;;;23.67;10.23;;;;;;;6.09;71.81;97016.50;119937;1151;104355;-74
2020/12/28 09:42:32;;;;;;;29.70;15.23;;;;;;;6.15;72.06;97002.77;119885;1152;104545;-72
2020/12/28 09:44:59;;;;;;;26.07;11.77;;;;;;;6.16;71.97;96987.76;119898;1153;104532;-76
2020/12/28 09:47:27;;;;;;;21.27;9.53;;;;;;;6.16;71.80;96985.97;119916;1153;104428;-76
2020/12/28 09:49:55;;;;;;;21.10;8.57;;;;;;;6.17;71.78;96974.44;119890;1152;104405;-75
2020/12/28 09:52:22;;;;;;;24.67;10.85;;;;;;;6.15;72.44;96959.69;119960;1151;104363;-77
2020/12/28 09:54:49;;;;;;;26.30;12.43;;;;;;;6.16;71.93;96958.72;119856;1151;104493;-76
2020/12/28 09:57:16;;;;;;;21.12;8.85;;;;;;;6.25;72.36;96957.91;119899;1151;104486;-77
2020/12/28 09:59:43;;;;;;;24.60;10.60;;;;;;;6.39;72.59;96948.75;119961;1151;104435;-76
2020/12/28 10:02:12;;;;;;;20.25;7.33;;;;;;;6.47;71.87;96950.73;119979;1153;104404;-75
2020/12/28 10:04:39;;;;;;;18.83;5.57;;;;;;;6.52;71.81;96930.84;119925;1152;104492;-76
2020/12/28 10:07:06;;;;;;;11.83;4.00;;;;;;;6.57;71.71;96929.59;119926;1153;104455;-78
2020/12/28 10:09:35;;;;;;;5.80;3.00;;;;;;;6.62;71.84;96924.73;119887;1153;104469;-76
2020/12/28 10:12:02;;;;;;;5.97;2.58;;;;;;;6.78;72.57;96911.77;119861;1151;104452;-75
2020/12/28 10:14:30;;;;;;;11.53;3.20;;;;;;;6.95;71.81;96914.67;119822;1151;104405;-75
2020/12/28 10:16:57;;;;;;;10.17;3.70;;;;;;;7.17;72.39;96923.23;119761;1151;104570;-73
2020/12/28 10:19:24;;;;;;;9.30;3.57;;;;;;;7.37;72.60;96946.02;119787;1151;104353;-77
2020/12/28 10:22:00;;;;;;;7.00;2.70;;;;;;;7.54;72.31;96967.43;119999;1151;104490;-79
2020/12/28 10:24:27;;;;;;;2.83;2.00;;;;;;;7.72;72.31;96976.26;119906;1151;104436;-74
2020/12/28 10:26:54;;;;;;;2.70;1.40;;;;;;;7.85;71.91;96970.62;119923;1151;104460;-75
2020/12/28 10:29:21;;;;;;;1.87;1.27;;;;;;;7.98;72.00;96974.76;119996;1151;104446;-75
2020/12/28 10:31:48;;;;;;;3.45;1.65;;;;;;;8.10;72.03;96975.39;119755;1153;104372;-75
2020/12/28 10:34:16;;;;;;;3.87;1.40;;;;;;;8.16;72.16;96961.56;119693;1151;104468;-72
2020/12/28 10:36:44;;;;;;;4.50;1.80;;;;;;;8.16;71.51;96938.55;119787;1152;104356;-73
2020/12/28 10:39:12;;;;;;;8.00;2.50;;;;;;;8.23;71.38;96927.36;119830;1151;104391;-73
2020/12/28 10:41:38;;;;;;;9.63;2.60;;;;;;;8.19;71.10;96929.49;119998;1151;104840;-72
2020/12/28 10:44:05;;;;;;;4.90;2.25;;;;;;;8.14;70.97;96919.36;119778;1151;104531;-72
2020/12/28 10:46:37;;;;;;;5.10;2.30;;;;;;;8.15;70.91;96913.05;119876;1151;104442;-71
2020/12/28 10:49:06;;;;;;;5.30;1.83;;;;;;;8.15;70.75;96913.05;119957;1151;104444;-73
2020/12/28 10:51:36;;;;;;;6.73;2.30;;;;;;;8.18;71.26;96915.40;120084;1151;104447;-72
2020/12/28 10:54:04;;;;;;;7.57;2.30;;;;;;;8.26;70.63;96895.28;119967;1151;104590;-75
2020/12/28 10:56:31;;;;;;;3.53;1.77;;;;;;;8.29;70.40;96895.84;119959;1151;104396;-72
2020/12/28 10:58:59;;;;;;;6.30;2.40;;;;;;;8.23;70.03;96901.73;119908;1151;104506;-73
2020/12/28 11:01:29;;;;;;;6.40;2.10;;;;;;;8.13;70.61;96909.75;119891;1151;104351;-72
2020/12/28 11:03:56;;;;;;;4.43;2.00;;;;;;;8.01;69.50;96884.45;119897;1151;104455;-72
2020/12/28 11:06:25;;;;;;;3.40;1.30;;;;;;;7.82;69.23;96880.11;119989;1151;104480;-72
2020/12/28 11:08:53;;;;;;;5.47;2.07;;;;;;;7.66;70.39;96904.57;119964;1149;104459;-73
2020/12/28 11:11:25;;;;;;;6.10;2.00;;;;;;;7.53;69.69;96894.33;119984;1151;104355;-72
2020/12/28 11:13:53;;;;;;;3.93;1.73;;;;;;;7.42;70.25;96888.23;119879;1151;104397;-70
2020/12/28 11:16:26;;;;;;;4.70;1.93;;;;;;;7.38;69.86;96886.02;119924;1151;104426;-74
2020/12/28 11:18:55;;;;;;;2.40;1.27;;;;;;;7.32;70.20;96865.47;119986;1151;104596;-74
2020/12/28 11:21:23;;;;;;;3.83;1.40;;;;;;;7.25;69.96;96894.28;119923;1151;104496;-75